Tiempo atmosférico en la estación meteorológica de Almazul, Soria (1000 m.)



Fecha
DESCASC
Temp. máxima en grados centígrados (hora)
DESCASC
Temp. mínima en grados centígrados (hora)
DESCASC
Temp. media en grados centígrados
DESCASC
Racha de viento máxima en m/sg (hora)
DESCASC
Velocidad máxima media en intervalos de 10 minutos(hora)
DESCASC
Precipitaciones diarias en mm
DESCASC
Precipitaciones de 00:00 a 06:00 en mm
DESCASC
Precipitaciones de 06:00 a 12:00 en mm
DESCASC
Precipitaciones de 12:00 a 18:00 en mm
DESCASC
Precipitaciones de 18:00 a 24:00 en mm
DESCASC
18-02-2018 9.4 (14:40) -1.3 (07:30) 4 16.11 (20:10) 12.22 (20:20) 0 0 0 0 0
17-02-2018 7.2 (02:40) -0.2 (23:50) 3.5 14.17 (16:30) 10.83 (16:20) 0 0 0 0 0
16-02-2018 15.7 (16:40) 3.1 (02:40) 9.4 5 (12:10) 2.78 (12:10) 0 0 0 0 0
15-02-2018 10.3 (16:10) 5.5 (00:00) 7.9 12.22 (11:30) 10.28 (11:30) 0 0 0 0 0
14-02-2018 7 (15:00) 2.2 (00:00) 4.6 17.78 (05:10) 11.39 (05:30) 1 0.6 0 0.2 0.2
13-02-2018 2.3 (23:59) -5.6 (-00:0) -1.6 13.61 (13:10) 9.72 (13:10) 1.2 0 0 0 1.2
12-02-2018 4 (14:20) -4.1 (-00:0) 0 13.61 (17:00) 11.11 (17:00) 0.6 0.6 0 0 0
11-02-2018 6.8 (16:00) 0.8 (00:00) 3.8 16.11 (12:00) 11.67 (12:00) 3.2 0 0 1 2.2
10-02-2018 3.4 (17:10) -0.7 (-00:0) 1.4 16.67 (12:10) 12.5 (04:00) 0 0 0 0 0
09-02-2018 3 (13:50) -6.7 (-00:0) -1.8 14.72 (23:20) 11.67 (22:20) 0.4 0 0 0.4 0
08-02-2018 2.2 (16:20) -5.5 (-00:0) -1.6 17.22 (13:00) 12.22 (12:50) 0 0 0 0 0
07-02-2018 0.8 (15:40) -4 (-00:0) -1.6 13.89 (16:50) 10.28 (17:00) 0 0 0 0 0
06-02-2018 -0.3 (16:50) -2.8 (-00:0) -1.5 20.83 (10:50) 16.39 (09:10) 0 0 0 0 0
05-02-2018 1.3 (15:50) -1.4 (-00:0) -0.1 18.33 (16:20) 14.44 (17:10) 0.2 0 0.2 0 0
04-02-2018 0.6 (15:30) -0.8 (-00:0) -0.1 13.89 (16:50) 10 (16:50) 3 0.2 0.6 2.2 0
03-02-2018 -- (--) -- (--) -- -- (--) -- (--) -- -- -- -- 3.8
02-02-2018 3 (14:10) -2.3 (-00:0) 0.4 18.33 (14:50) 13.06 (11:50) 0 0 0 0 0
01-02-2018 5.4 (14:30) -2.4 (-00:0) 1.5 13.89 (14:00) 10.56 (16:10) 0 0 0 0 0
31-01-2018 12.8 (16:40) -3.9 (-00:0) 4.5 6.39 (14:50) 4.44 (03:50) 0 0 0 0 0
30-01-2018 15 (16:10) -3.7 (-00:0) 5.6 4.17 (09:20) 3.61 (09:20) 0 0 0 0 0
29-01-2018 13.8 (16:20) -3.3 (-00:0) 5.3 5 (07:50) 4.17 (07:50) 0 0 0 0 0
28-01-2018 9.4 (13:10) -1.3 (-00:0) 4 13.89 (14:10) 9.17 (13:00) 0 0 0 0 0
27-01-2018 5 (16:10) 0 (00:00) 2.5 22.22 (13:10) 16.67 (13:10) 0 0 0 0 0
26-01-2018 4.9 (14:40) 0.6 (00:00) 2.8 19.17 (14:10) 15.28 (14:10) 0 0 0 0 0
25-01-2018 8.5 (13:50) 0.7 (00:00) 4.6 14.72 (14:10) 10 (14:00) 3 0 0 0.4 2.6
24-01-2018 15.5 (16:10) -2.7 (-00:0) 6.4 7.22 (15:10) 5 (15:40) 0 0 0 0 0
23-01-2018 16.2 (16:50) -0.4 (00:00) 7.9 5.83 (02:00) 4.17 (08:50) 0 0 0 0 0
22-01-2018 10.6 (15:50) 2.6 (00:00) 6.6 8.33 (16:20) 5.83 (10:00) 0 0 0 0 0

Gráficas

Temp. máximas Temp. mínimas Temp. medias Precipitaciones Rachas de viento máximas Velocidades máximas media en intervalos de 10 minutos

Datos horarios

Fecha y hora oficial Temperatura (ºC) Velocidad del viento (km/h) Dirección del viento Racha (km/h) Dirección de racha Precipitación (mm) Presión (hPa) Tendencia (hPa) Humedad (%)
2018-02-20 23:00:00 4.3 17 Norte 46 Norte 0 -- -- 76
2018-02-20 22:00:00 4.1 31 Norte 42 Norte 0 -- -- 75
2018-02-20 21:00:00 3.7 43 Norte 75 Norte 0 -- -- 75
2018-02-20 20:00:00 4.1 42 Norte 60 Norte 0 -- -- 74
2018-02-20 19:00:00 5.2 36 Norte 55 Norte 0 -- -- 74
2018-02-20 18:00:00 5.9 26 Norte 49 Norte 0 -- -- 71
2018-02-20 17:00:00 7.1 40 Norte 64 Nordeste 0 -- -- 61
2018-02-20 16:00:00 7 43 Norte 63 Norte 0 -- -- 65
2018-02-20 15:00:00 7.3 49 Norte 62 Norte 0 -- -- 68
2018-02-20 14:00:00 7.1 39 Norte 52 Norte 0 -- -- 71
2018-02-20 13:00:00 6.7 37 Norte 52 Norte 0 -- -- 71
2018-02-20 12:00:00 7 32 Norte 44 Norte 0 -- -- 71
2018-02-20 11:00:00 6.6 36 Norte 46 Norte 0 -- -- 72
2018-02-20 10:00:00 6.3 24 Norte 37 Norte 0 -- -- 77
2018-02-20 09:00:00 5.9 21 Norte 46 Norte 0 -- -- 80
2018-02-20 08:00:00 5.7 32 Norte 43 Norte 0 -- -- 81
2018-02-20 07:00:00 5.7 27 Norte 39 Norte 0 -- -- 83
2018-02-20 06:00:00 5.8 24 Norte 37 Norte 0 -- -- 85
2018-02-20 05:00:00 5.5 21 Norte 33 Norte 0 -- -- 86
2018-02-20 04:00:00 5 22 Norte 38 Norte 0 -- -- 89
2018-02-20 03:00:00 5.1 29 Norte 40 Norte 0 -- -- 89
2018-02-20 02:00:00 5.6 14 Norte 26 Norte 0 -- -- 87
2018-02-20 01:00:00 5.3 20 Norte 28 Norte 0 -- -- 87
2018-02-20 00:00:00 5.1 17 Norte 33 Norte 0 -- -- 87
2018-02-19 23:00:00 5.9 27 Norte 35 Norte 0 -- -- 84
2018-02-19 22:00:00 6.3 19 Norte 31 Norte 0 -- -- 81
2018-02-19 21:00:00 6.5 17 Norte 33 Norte 0 -- -- 82
2018-02-19 20:00:00 6.8 24 Norte 33 Norte 0 -- -- 79
2018-02-19 19:00:00 6.9 23 Norte 34 Norte 0 -- -- 79
2018-02-19 18:00:00 7.4 26 Norte 38 Norte 0 -- -- 77
2018-02-19 17:00:00 8.1 25 Norte 37 Norte 0 -- -- 74
2018-02-19 16:00:00 8.1 27 Norte 37 Norte 0 -- -- 70
2018-02-19 15:00:00 8.3 25 Nordeste 33 Norte 0 -- -- 69
2018-02-19 14:00:00 8.3 24 Norte 35 Norte 0 -- -- 71
2018-02-19 13:00:00 8.3 28 Norte 36 Norte 0 -- -- 69
2018-02-19 12:00:00 8 29 Norte 39 Norte 0 -- -- 71
2018-02-19 11:00:00 6.3 15 Noroeste 29 Norte 0 -- -- 78
2018-02-19 10:00:00 6.1 21 Norte 30 Norte 0 -- -- 79
2018-02-19 09:00:00 3.9 13 Norte 28 Norte 0 -- -- 85
2018-02-19 08:00:00 3.7 17 Norte 24 Norte 0 -- -- 86
2018-02-19 07:00:00 3.2 19 Norte 25 Norte 0 -- -- 88
2018-02-19 06:00:00 3.3 15 Norte 21 Norte 0 -- -- 86
2018-02-19 05:00:00 3 6 Norte 23 Norte 0 -- -- 88
2018-02-19 04:00:00 3.6 15 Norte 24 Norte 0 -- -- 85
2018-02-19 03:00:00 3 4 Oeste 14 Norte 0 -- -- 88
2018-02-19 02:00:00 3.5 6 Noroeste 22 Norte 0 -- -- 86
2018-02-19 01:00:00 3.9 9 Norte 22 Norte 0 -- -- 84
2018-02-19 00:00:00 3.5 21 Norte 29 Norte 0 -- -- 85
2018-02-18 23:00:00 4.5 18 Norte 32 Norte 0 -- -- 80
2018-02-18 22:00:00 4.6 21 Norte 40 Norte 0 -- -- 80
2018-02-18 21:00:00 5 33 Nordeste 58 Norte 0 -- -- 78
2018-02-18 20:00:00 5.3 36 Nordeste 45 Nordeste 0 -- -- 77
2018-02-18 19:00:00 5.5 31 Norte 48 Norte 0 -- -- 77
2018-02-18 18:00:00 6.3 37 Norte 48 Norte 0 -- -- 74
2018-02-18 17:00:00 8.1 35 Nordeste 45 Norte 0 -- -- 66
2018-02-18 16:00:00 7.1 28 Nordeste 50 Nordeste 0 -- -- 70
2018-02-18 15:00:00 8.7 35 Nordeste 50 Nordeste 0 -- -- 64
2018-02-18 14:00:00 8.2 28 Nordeste 51 Norte 0 -- -- 65
2018-02-18 13:00:00 6.9 39 Norte 53 Nordeste 0 -- -- 53
2018-02-18 12:00:00 5.4 22 Norte 36 Norte 0 -- -- 64
2018-02-18 11:00:00 4.2 16 Nordeste 23 Norte 0 -- -- 71
2018-02-18 10:00:00 3.8 5 Nordeste 14 Nordeste 0 -- -- 71
2018-02-18 09:00:00 1.4 5 Nordeste 26 Norte 0 -- -- 77
2018-02-18 08:00:00 -0.3 19 Norte 28 Norte 0 -- -- 82
2018-02-18 07:00:00 -0.9 15 Norte 28 Norte 0 -- -- 84
2018-02-18 06:00:00 -0.1 26 Norte 30 Norte 0 -- -- 81
2018-02-18 05:00:00 -0.9 7 Norte 29 Norte 0 -- -- 87
2018-02-18 04:00:00 0.2 20 Norte 30 Norte 0 -- -- 82
2018-02-18 03:00:00 0.2 23 Norte 29 Norte 0 -- -- 81
2018-02-18 02:00:00 0.4 27 Norte 32 Norte 0 -- -- 82
2018-02-18 01:00:00 0.1 30 Norte 35 Norte 0 -- -- 84
2018-02-18 00:00:00 0.2 21 Norte 47 Norte 0 -- -- 84
2018-02-17 23:00:00 1.7 27 Norte 40 Nordeste 0 -- -- 80
2018-02-17 22:00:00 1.6 22 Nordeste 37 Nordeste 0 -- -- 81
2018-02-17 21:00:00 1.8 24 Nordeste 39 Nordeste 0 -- -- 84
2018-02-17 20:00:00 2.7 31 Nordeste 42 Nordeste 0 -- -- 83
2018-02-17 19:00:00 3.4 33 Nordeste 45 Nordeste 0 -- -- 82
2018-02-17 18:00:00 6 32 Nordeste 50 Nordeste 0 -- -- 69
2018-02-17 17:00:00 6.2 37 Nordeste 51 Nordeste 0 -- -- 72
2018-02-17 16:00:00 7 32 Nordeste 45 Nordeste 0 -- -- 70
2018-02-17 15:00:00 6.5 35 Norte 44 Nordeste 0 -- -- 71
2018-02-17 14:00:00 6.5 31 Nordeste 44 Nordeste 0 -- -- 79
2018-02-17 13:00:00 6.3 29 Nordeste 41 Nordeste 0 -- -- 80
2018-02-17 12:00:00 5 33 Nordeste 45 Nordeste 0 -- -- 87
2018-02-17 11:00:00 5.7 29 Nordeste 36 Nordeste 0 -- -- 91
2018-02-17 10:00:00 6 13 Norte 22 Norte 0 -- -- 95
2018-02-17 09:00:00 5.3 17 Nordeste 39 Noroeste 0 -- -- 97
2018-02-17 08:00:00 5.5 29 Noroeste 36 Noroeste 0 -- -- 96
2018-02-17 07:00:00 5.8 22 Noroeste 33 Noroeste 0 -- -- 95
2018-02-17 06:00:00 6.5 19 Noroeste 29 Noroeste 0 -- -- 92
2018-02-17 05:00:00 6.6 17 Noroeste 24 Noroeste 0 -- -- 95
2018-02-17 04:00:00 6.7 15 Noroeste 25 Noroeste 0 -- -- 95
2018-02-17 03:00:00 7.2 4 Norte 9 Norte 0 -- -- 96
2018-02-17 02:00:00 6.3 6 Norte 9 Norte 0 -- -- 95
2018-02-17 01:00:00 6 4 Norte 6 Norte 0 -- -- 96
2018-02-17 00:00:00 6 4 Nordeste 7 Nordeste 0 -- -- 97
2018-02-16 23:00:00 5.8 0 Calma 6 Nordeste 0 -- -- 94
2018-02-16 22:00:00 6.3 0 Calma 5 Sudeste 0 -- -- 91
2018-02-16 21:00:00 7.3 5 Sur 10 Sudeste 0 -- -- 92
2018-02-16 20:00:00 7.8 6 Este 10 Este 0 -- -- 87
2018-02-16 19:00:00 11.1 2 Nordeste 3 Nordeste 0 -- -- 77
2018-02-16 18:00:00 14 0 Calma 6 Sudoeste 0 -- -- 66
2018-02-16 17:00:00 14.6 4 Sudoeste 9 Oeste 0 -- -- 66
2018-02-16 16:00:00 12 5 Oeste 14 Oeste 0 -- -- 77
2018-02-16 15:00:00 11.6 4 Oeste 10 Oeste 0 -- -- 77
2018-02-16 14:00:00 10.1 10 Noroeste 14 Noroeste 0 -- -- 84
2018-02-16 13:00:00 9.6 9 Oeste 18 Noroeste 0 -- -- 89
2018-02-16 12:00:00 8.5 9 Noroeste 16 Noroeste 0 -- -- 97
2018-02-16 11:00:00 8.1 2 Sur 4 Sur 0 -- -- 98
2018-02-16 10:00:00 6.8 3 Sur 5 Oeste 0 -- -- 100
2018-02-16 09:00:00 6 0 Calma 6 Oeste 0 -- -- 100
2018-02-16 08:00:00 5.2 3 Noroeste 7 Noroeste 0 -- -- 100
2018-02-16 07:00:00 4.4 0 Calma 4 Noroeste 0 -- -- 100
2018-02-16 06:00:00 3.8 0 Calma 5 Norte 0 -- -- 100
2018-02-16 05:00:00 3.9 0 Calma 9 Nordeste 0 -- -- 100
2018-02-16 04:00:00 4.1 4 Nordeste 8 Nordeste 0 -- -- 100
2018-02-16 03:00:00 4 4 Nordeste 7 Norte 0 -- -- 100
2018-02-16 02:00:00 4.2 0 Calma 6 Norte 0 -- -- 99
2018-02-16 01:00:00 4.1 6 Norte 10 Norte 0 -- -- 98
2018-02-16 00:00:00 5.7 5 Nordeste 9 Este 0 -- -- 98
2018-02-15 23:00:00 5.8 5 Norte 9 Nordeste 0 -- -- 95
2018-02-15 22:00:00 7.5 6 Norte 7 Norte 0 -- -- 95
2018-02-15 21:00:00 8.5 3 Noroeste 5 Noroeste 0 -- -- 93
2018-02-15 20:00:00 8.6 2 Sur 8 Norte 0 -- -- 93
2018-02-15 19:00:00 9.1 4 Norte 15 Noroeste 0 -- -- 91
2018-02-15 18:00:00 9.7 10 Noroeste 16 Norte 0 -- -- 88
2018-02-15 17:00:00 10.1 13 Norte 22 Norte 0 -- -- 87
2018-02-15 16:00:00 10.1 16 Noroeste 24 Noroeste 0 -- -- 85
2018-02-15 15:00:00 9.3 15 Noroeste 25 Noroeste 0 -- -- 88
2018-02-15 14:00:00 9.1 12 Noroeste 18 Oeste 0 -- -- 88
2018-02-15 13:00:00 8.2 10 Oeste 33 Oeste 0 -- -- 93
2018-02-15 12:00:00 7.6 35 Oeste 44 Oeste 0 -- -- 95
2018-02-15 11:00:00 7.9 22 Oeste 32 Noroeste 0 -- -- 94
2018-02-15 10:00:00 8.2 12 Oeste 24 Oeste 0 -- -- 93
2018-02-15 09:00:00 7 5 Oeste 14 Oeste 0 -- -- 96
2018-02-15 08:00:00 6.7 5 Oeste 12 Oeste 0 -- -- 97
2018-02-15 07:00:00 6.7 4 Sur 18 Noroeste 0 -- -- 96
2018-02-15 06:00:00 6.6 12 Noroeste 28 Noroeste 0 -- -- 97
2018-02-15 05:00:00 6.4 17 Noroeste 30 Noroeste 0 -- -- 98
2018-02-15 04:00:00 6.5 7 Noroeste 22 Noroeste 0 -- -- 97
2018-02-15 03:00:00 6.7 4 Norte 22 Noroeste 0 -- -- 96
2018-02-15 02:00:00 6.7 14 Noroeste 41 Noroeste 0 -- -- 96
2018-02-15 01:00:00 6.6 22 Noroeste 41 Noroeste 0 -- -- 96
2018-02-15 00:00:00 6.6 24 Noroeste 40 Noroeste 0 -- -- 95
2018-02-14 23:00:00 6.5 22 Noroeste 50 Noroeste 0 -- -- 95
2018-02-14 22:00:00 6.3 24 Noroeste 40 Oeste 0 -- -- 96
2018-02-14 21:00:00 6.3 25 Noroeste 42 Oeste 0 -- -- 95
2018-02-14 20:00:00 6.5 28 Noroeste 41 Noroeste 0 -- -- 94
2018-02-14 19:00:00 6.4 26 Noroeste 37 Oeste 0.2 -- -- 95
2018-02-14 18:00:00 6.5 21 Noroeste 35 Oeste 0 -- -- 95
2018-02-14 17:00:00 6.6 21 Noroeste 41 Noroeste 0.2 -- -- 93
2018-02-14 16:00:00 6.8 22 Noroeste 48 Oeste 0 -- -- 88
2018-02-14 15:00:00 7 30 Noroeste 46 Oeste 0 -- -- 85
2018-02-14 14:00:00 6.4 26 Noroeste 50 Noroeste 0 -- -- 88
2018-02-14 13:00:00 6.4 34 Noroeste 54 Noroeste 0 -- -- 87
2018-02-14 12:00:00 5.8 31 Noroeste 50 Noroeste 0 -- -- 89
2018-02-14 11:00:00 5.3 33 Noroeste 56 Oeste 0 -- -- 90
2018-02-14 10:00:00 4.8 33 Noroeste 52 Oeste 0 -- -- 90
2018-02-14 09:00:00 4.3 27 Noroeste 46 Noroeste 0 -- -- 93
2018-02-14 08:00:00 4 22 Noroeste 41 Oeste 0 -- -- 94
2018-02-14 07:00:00 4.3 25 Oeste 53 Noroeste 0 -- -- 92
2018-02-14 06:00:00 4.5 37 Noroeste 64 Noroeste 0 -- -- 93
2018-02-14 05:00:00 4.4 41 Noroeste 60 Noroeste 0 -- -- 94
2018-02-14 04:00:00 4.2 32 Noroeste 45 Oeste 0.2 -- -- 96
2018-02-14 03:00:00 3.5 15 Noroeste 25 Noroeste 0 -- -- 98
2018-02-14 02:00:00 2.5 4 Oeste 9 Noroeste 0.2 -- -- 97
2018-02-14 01:00:00 2.4 7 Noroeste 23 Noroeste 0.2 -- -- 97
2018-02-14 00:00:00 2.3 13 Noroeste 21 Oeste 0.2 -- -- 96
2018-02-13 23:00:00 1.8 13 Noroeste 28 Noroeste 0.2 -- -- 96
2018-02-13 22:00:00 1.6 20 Noroeste 34 Noroeste 0.6 -- -- 94
2018-02-13 21:00:00 2.1 6 Noroeste 18 Noroeste 0 -- -- 95
2018-02-13 20:00:00 1.6 13 Noroeste 30 Noroeste 0 -- -- 94
2018-02-13 19:00:00 1.4 15 Noroeste 29 Noroeste 0.2 -- -- 94
2018-02-13 18:00:00 1.4 19 Noroeste 32 Oeste 0 -- -- 94
2018-02-13 17:00:00 1.1 17 Noroeste 39 Oeste 0 -- -- 94
2018-02-13 16:00:00 1.1 21 Oeste 34 Noroeste 0 -- -- 92
2018-02-13 15:00:00 0 14 Oeste 23 Oeste 0 -- -- 92
2018-02-13 14:00:00 -0.8 16 Oeste 49 Noroeste 0 -- -- 92
2018-02-13 13:00:00 -0.4 30 Oeste 44 Oeste 0 -- -- 84
2018-02-13 12:00:00 -0.9 24 Oeste 41 Noroeste 0 -- -- 83
2018-02-13 11:00:00 -0.7 21 Oeste 36 Oeste 0 -- -- 78
2018-02-13 10:00:00 -1.6 17 Oeste 27 Oeste 0 -- -- 83
2018-02-13 09:00:00 -2.2 8 Oeste 18 Oeste 0 -- -- 83
2018-02-13 08:00:00 -3 9 Noroeste 15 Noroeste 0 -- -- 82
2018-02-13 07:00:00 -3.5 8 Noroeste 12 Noroeste 0 -- -- 82
2018-02-13 06:00:00 -3.3 10 Oeste 14 Oeste 0 -- -- 84
2018-02-13 05:00:00 -4.5 6 Oeste 12 Oeste 0 -- -- 92
2018-02-13 04:00:00 -5.4 0 Calma 2 Nordeste 0 -- -- 91
2018-02-13 03:00:00 -5.6 0 Calma 6 Sudeste 0 -- -- 91
2018-02-13 02:00:00 -4.8 3 Sur 4 Sur 0 -- -- 89
2018-02-13 01:00:00 -3.6 0 Calma -- -- 0 -- -- 85
2018-02-13 00:00:00 -3.5 3 Noroeste 4 Noroeste 0 -- -- 85
2018-02-12 23:00:00 -4 2 Norte 9 Norte 0 -- -- 88
2018-02-12 22:00:00 -3.4 6 Nordeste 9 Nordeste 0 -- -- 86
2018-02-12 21:00:00 -2.8 4 Norte 15 Nordeste 0 -- -- 86
2018-02-12 20:00:00 -1.1 15 Nordeste 28 Nordeste 0 -- -- 75
2018-02-12 19:00:00 -0.4 19 Norte 30 Norte 0 -- -- 73
2018-02-12 18:00:00 -0.1 21 Norte 44 Nordeste 0 -- -- 78
2018-02-12 17:00:00 0.3 40 Nordeste 49 Nordeste 0 -- -- 75
2018-02-12 16:00:00 2.9 27 Norte 38 Norte 0 -- -- 56
2018-02-12 15:00:00 3.2 25 Norte 39 Norte 0 -- -- 53
2018-02-12 14:00:00 3.3 28 Norte 40 Norte 0 -- -- 60
2018-02-12 13:00:00 2.7 25 Norte 37 Norte 0 -- -- 64
2018-02-12 12:00:00 2.7 22 Norte 44 Nordeste 0 -- -- 67
2018-02-12 11:00:00 1.6 33 Norte 47 Norte 0 -- -- 75
2018-02-12 10:00:00 0.2 23 Norte 37 Nordeste 0 -- -- 77
2018-02-12 09:00:00 0.3 13 Norte 22 Norte 0 -- -- 83
2018-02-12 08:00:00 0.8 17 Norte 33 Nordeste 0 -- -- 82
2018-02-12 07:00:00 0.9 15 Nordeste 18 Nordeste 0 -- -- 88
2018-02-12 06:00:00 1 6 Nordeste 10 Nordeste 0 -- -- 91
2018-02-12 05:00:00 1.7 8 Nordeste 16 Nordeste 0 -- -- 90
2018-02-12 04:00:00 2.2 14 Nordeste 31 Nordeste 0 -- -- 88
2018-02-12 03:00:00 2.5 28 Nordeste 47 Nordeste 0 -- -- 87
2018-02-12 02:00:00 2.6 25 Nordeste 32 Nordeste 0 -- -- 90
2018-02-12 01:00:00 3.4 16 Nordeste 21 Nordeste 0.6 -- -- 92
2018-02-12 00:00:00 3.6 12 Nordeste 22 Nordeste 0.2 -- -- 96
2018-02-11 23:00:00 4.5 3 Norte 15 Nordeste 0.6 -- -- 97
2018-02-11 22:00:00 5.1 9 Nordeste 13 Nordeste 0 -- -- 96
2018-02-11 21:00:00 5.5 6 Noroeste 15 Noroeste 1.4 -- -- 95
2018-02-11 20:00:00 5.7 10 Noroeste 22 Oeste 0 -- -- 94
2018-02-11 19:00:00 5.5 5 Nordeste 19 Noroeste 0 -- -- 94
2018-02-11 18:00:00 5.8 12 Noroeste 30 Noroeste 1 -- -- 93
2018-02-11 17:00:00 6.3 20 Noroeste 48 Noroeste 0 -- -- 87
2018-02-11 16:00:00 6.8 29 Noroeste 47 Noroeste 0 -- -- 85
2018-02-11 15:00:00 5.9 28 Noroeste 48 Noroeste 0 -- -- 87
2018-02-11 14:00:00 6.1 29 Noroeste 46 Noroeste 0 -- -- 84
2018-02-11 13:00:00 5.3 32 Noroeste 53 Noroeste 0 -- -- 85
2018-02-11 12:00:00 5.2 42 Noroeste 58 Noroeste 0 -- -- 84
2018-02-11 11:00:00 3.7 35 Noroeste 48 Noroeste 0 -- -- 92
2018-02-11 10:00:00 2.8 26 Noroeste 42 Noroeste 0 -- -- 90
2018-02-11 09:00:00 1.6 15 Noroeste 28 Noroeste 0 -- -- 91
2018-02-11 08:00:00 1.6 12 Noroeste 35 Noroeste 0 -- -- 91
2018-02-11 07:00:00 1.7 24 Noroeste 40 Noroeste 0 -- -- 89
2018-02-11 06:00:00 1.5 26 Noroeste 40 Noroeste 0 -- -- 87
2018-02-11 05:00:00 1.7 23 Noroeste 36 Noroeste 0 -- -- 88
2018-02-11 04:00:00 1.8 22 Noroeste 31 Noroeste 0 -- -- 86
2018-02-11 03:00:00 1.4 15 Noroeste 28 Noroeste 0 -- -- 85
2018-02-11 02:00:00 1.2 15 Noroeste 25 Noroeste 0 -- -- 84
2018-02-11 01:00:00 1.1 8 Norte 17 Noroeste 0 -- -- 82
2018-02-11 00:00:00 1 10 Noroeste 17 Noroeste 0 -- -- 82
2018-02-10 23:00:00 1.2 11 Noroeste 25 Norte 0 -- -- 79
2018-02-10 22:00:00 1.9 17 Norte 24 Norte 0 -- -- 79
2018-02-10 21:00:00 1.8 8 Norte 17 Noroeste 0 -- -- 79
2018-02-10 20:00:00 1.7 12 Norte 26 Norte 0 -- -- 79
2018-02-10 19:00:00 1.8 21 Norte 31 Norte 0 -- -- 77
2018-02-10 18:00:00 2.1 20 Norte 37 Norte 0 -- -- 75
2018-02-10 17:00:00 3 29 Norte 51 Norte 0 -- -- 70
2018-02-10 16:00:00 2.7 34 Norte 46 Norte 0 -- -- 69
2018-02-10 15:00:00 1.9 28 Norte 41 Norte 0 -- -- 78
2018-02-10 14:00:00 2.8 30 Norte 53 Norte 0 -- -- 72
2018-02-10 13:00:00 2.7 37 Norte 60 Norte 0 -- -- 70
2018-02-10 12:00:00 2.7 36 Norte 51 Norte 0 -- -- 66
2018-02-10 11:00:00 1.3 29 Norte 43 Norte 0 -- -- 75
2018-02-10 10:00:00 0.6 28 Norte 41 Norte 0 -- -- 76
2018-02-10 09:00:00 -0.5 7 Norte 14 Noroeste 0 -- -- 77
2018-02-10 08:00:00 -0.5 4 Noroeste 30 Norte 0 -- -- 76
2018-02-10 07:00:00 -0.3 12 Noroeste 20 Norte 0 -- -- 74
2018-02-10 06:00:00 -0.6 15 Norte 42 Norte 0 -- -- 79
2018-02-10 05:00:00 -0.3 24 Norte 49 Norte 0 -- -- 75
2018-02-10 04:00:00 0.1 45 Norte 55 Norte 0 -- -- 70
2018-02-10 03:00:00 -0.1 38 Norte 53 Norte 0 -- -- 68
2018-02-10 02:00:00 -0.5 30 Norte 55 Norte 0 -- -- 73
2018-02-10 01:00:00 -0.1 29 Norte 42 Norte 0 -- -- 77
2018-02-10 00:00:00 0.2 31 Norte 53 Norte 0 -- -- 76
2018-02-09 23:00:00 0.2 33 Norte 50 Norte 0 -- -- 79
2018-02-09 22:00:00 0.6 30 Norte 40 Norte 0 -- -- 89
2018-02-09 21:00:00 0.5 18 Norte 36 Noroeste 0 -- -- 94
2018-02-09 20:00:00 0.4 18 Noroeste 33 Noroeste 0 -- -- 95
2018-02-09 19:00:00 1.3 21 Noroeste 31 Noroeste 0 -- -- 91
2018-02-09 18:00:00 1.5 12 Noroeste 31 Oeste 0.2 -- -- 90
2018-02-09 17:00:00 0.4 20 Noroeste 31 Noroeste 0.2 -- -- 96
2018-02-09 16:00:00 0.7 20 Oeste 31 Oeste 0 -- -- 89
2018-02-09 15:00:00 1.9 18 Oeste 31 Noroeste 0 -- -- 80
2018-02-09 14:00:00 2.8 16 Oeste 26 Oeste 0 -- -- 67
2018-02-09 13:00:00 2.1 20 Noroeste 33 Noroeste 0 -- -- 65
2018-02-09 12:00:00 1.2 19 Noroeste 37 Noroeste 0 -- -- 66
2018-02-09 11:00:00 -0.7 9 Norte 19 Norte 0 -- -- 77
2018-02-09 10:00:00 -2.2 11 Noroeste 18 Noroeste 0 -- -- 78
2018-02-09 09:00:00 -5.3 2 Sudeste 5 Sudeste 0 -- -- 87
2018-02-09 08:00:00 -6.7 2 Norte 3 Nordeste 0 -- -- 89
2018-02-09 07:00:00 -5.6 2 Norte 13 Noroeste 0 -- -- 86
2018-02-09 06:00:00 -4.9 6 Noroeste 17 Norte 0 -- -- 86
2018-02-09 05:00:00 -4.7 11 Norte 19 Norte 0 -- -- 88
2018-02-09 04:00:00 -4.6 6 Noroeste 12 Noroeste 0 -- -- 89
2018-02-09 03:00:00 -4.4 4 Norte 12 Oeste 0 -- -- 83
2018-02-09 02:00:00 -4.4 0 Calma 17 Norte 0 -- -- 85
2018-02-09 01:00:00 -3.4 9 Norte 18 Norte 0 -- -- 81
2018-02-09 00:00:00 -3.7 2 Oeste 33 Norte 0 -- -- 84
2018-02-08 23:00:00 -2.2 26 Norte 34 Norte 0 -- -- 78
2018-02-08 22:00:00 -2.2 27 Norte 36 Norte 0 -- -- 80
2018-02-08 21:00:00 -2.1 21 Norte 46 Norte 0 -- -- 80
2018-02-08 20:00:00 -1.4 28 Norte 41 Norte 0 -- -- 76
2018-02-08 19:00:00 -0.8 21 Norte 40 Norte 0 -- -- 72
2018-02-08 18:00:00 0.5 27 Norte 45 Norte 0 -- -- 68
2018-02-08 17:00:00 0.5 36 Norte 54 Norte 0 -- -- 66
2018-02-08 16:00:00 1.2 32 Norte 49 Norte 0 -- -- 66
2018-02-08 15:00:00 0.8 42 Norte 57 Norte 0 -- -- 62
2018-02-08 14:00:00 1 35 Norte 56 Norte 0 -- -- 62
2018-02-08 13:00:00 1.7 44 Norte 62 Norte 0 -- -- 61
2018-02-08 12:00:00 0.1 37 Norte 50 Norte 0 -- -- 72
2018-02-08 11:00:00 -0.4 30 Norte 40 Norte 0 -- -- 73
2018-02-08 10:00:00 -1.6 21 Norte 33 Noroeste 0 -- -- 79
2018-02-08 09:00:00 -3 21 Noroeste 30 Norte 0 -- -- 84
2018-02-08 08:00:00 -3 14 Norte 26 Norte 0 -- -- 84
2018-02-08 07:00:00 -4.8 2 Noroeste 22 Noroeste 0 -- -- 84
2018-02-08 06:00:00 -4 11 Noroeste 33 Norte 0 -- -- 83
2018-02-08 05:00:00 -2.7 23 Norte 40 Norte 0 -- -- 76
2018-02-08 04:00:00 -4.9 6 Norte 23 Norte 0 -- -- 80
2018-02-08 03:00:00 -4.9 11 Norte 20 Norte 0 -- -- 81
2018-02-08 02:00:00 -4.1 12 Norte 21 Norte 0 -- -- 76
2018-02-08 01:00:00 -5.5 0 Calma 20 Norte 0 -- -- 83
2018-02-08 00:00:00 -4 21 Norte 43 Norte 0 -- -- 77
2018-02-07 23:00:00 -3.4 29 Norte 41 Norte 0 -- -- 74
2018-02-07 22:00:00 -3 22 Norte 32 Norte 0 -- -- 80
2018-02-07 21:00:00 -2.7 14 Nordeste 32 Norte 0 -- -- 81
2018-02-07 20:00:00 -1.8 19 Norte 44 Norte 0 -- -- 78
2018-02-07 19:00:00 -1.2 29 Norte 39 Norte 0 -- -- 75
2018-02-07 18:00:00 -0.9 31 Norte 48 Norte 0 -- -- 69
2018-02-07 17:00:00 0.5 37 Norte 50 Norte 0 -- -- 61
2018-02-07 16:00:00 0.2 30 Norte 46 Norte 0 -- -- 57
2018-02-07 15:00:00 -1 27 Nordeste 44 Norte 0 -- -- 78
2018-02-07 14:00:00 -0.4 27 Norte 42 Norte 0 -- -- 68
2018-02-07 13:00:00 -0.5 27 Nordeste 37 Nordeste 0 -- -- 76
2018-02-07 12:00:00 -1.4 26 Nordeste 38 Norte 0 -- -- 80
2018-02-07 11:00:00 -1.3 24 Nordeste 41 Nordeste 0 -- -- 79
2018-02-07 10:00:00 -1.4 27 Norte 38 Norte 0 -- -- 73
2018-02-07 09:00:00 -2 28 Norte 41 Norte 0 -- -- 77
2018-02-07 08:00:00 -2.1 30 Norte 44 Norte 0 -- -- 74
2018-02-07 07:00:00 -2.3 22 Norte 42 Norte 0 -- -- 76
2018-02-07 06:00:00 -2.1 24 Norte 33 Norte 0 -- -- 79
2018-02-07 05:00:00 -2.5 26 Norte 37 Norte 0 -- -- 76
2018-02-07 04:00:00 -2.3 28 Norte 42 Norte 0 -- -- 77
2018-02-07 03:00:00 -1.6 29 Norte 41 Norte 0 -- -- 77
2018-02-07 02:00:00 -1.8 24 Norte 35 Norte 0 -- -- 78
2018-02-07 01:00:00 -2.5 22 Norte 36 Norte 0 -- -- 79
2018-02-07 00:00:00 -2.5 26 Norte 41 Norte 0 -- -- 80
2018-02-06 23:00:00 -2.5 30 Norte 40 Norte 0 -- -- 80
2018-02-06 22:00:00 -2.5 24 Norte 42 Norte 0 -- -- 81
2018-02-06 21:00:00 -2.6 14 Norte 45 Norte 0 -- -- 80
2018-02-06 20:00:00 -1.6 30 Nordeste 42 Nordeste 0 -- -- 75
2018-02-06 19:00:00 -1.4 28 Norte 49 Norte 0 -- -- 75
2018-02-06 18:00:00 -0.8 39 Norte 58 Norte 0 -- -- 71
2018-02-06 17:00:00 -0.3 33 Nordeste 59 Nordeste 0 -- -- 72
2018-02-06 16:00:00 -0.5 40 Nordeste 63 Norte 0 -- -- 68
2018-02-06 15:00:00 -0.9 52 Nordeste 68 Nordeste 0 -- -- 72
2018-02-06 14:00:00 -1.3 51 Nordeste 66 Nordeste 0 -- -- 68
2018-02-06 13:00:00 -1.3 49 Nordeste 73 Nordeste 0 -- -- 65
2018-02-06 12:00:00 -1.7 59 Nordeste 74 Nordeste 0 -- -- 74
2018-02-06 11:00:00 -2.2 55 Nordeste 75 Nordeste 0 -- -- 78
2018-02-06 10:00:00 -2.7 50 Nordeste 73 Nordeste 0 -- -- 75
2018-02-06 09:00:00 -2.8 57 Nordeste 70 Nordeste 0 -- -- 80
2018-02-06 08:00:00 -2.6 54 Nordeste 68 Nordeste 0 -- -- 80
2018-02-06 07:00:00 -2.2 54 Nordeste 70 Norte 0 -- -- 83
2018-02-06 06:00:00 -1.6 45 Nordeste 72 Norte 0 -- -- 87
2018-02-06 05:00:00 -1 54 Nordeste 69 Nordeste 0 -- -- 84
2018-02-06 04:00:00 -0.6 46 Nordeste 60 Nordeste 0 -- -- 86
2018-02-06 03:00:00 -0.6 39 Nordeste 62 Nordeste 0 -- -- 88
2018-02-06 02:00:00 -0.4 47 Nordeste 60 Nordeste 0 -- -- 87
2018-02-06 01:00:00 -0.4 32 Nordeste 50 Nordeste 0 -- -- 88
2018-02-06 00:00:00 -0.6 30 Nordeste 43 Nordeste 0 -- -- 91
2018-02-05 23:00:00 -0.6 30 Nordeste 46 Nordeste 0 -- -- 92
2018-02-05 22:00:00 -0.7 35 Nordeste 46 Nordeste 0 -- -- 92
2018-02-05 21:00:00 -0.6 36 Nordeste 49 Nordeste 0 -- -- 92
2018-02-05 20:00:00 -0.6 36 Nordeste 59 Nordeste 0 -- -- 91
2018-02-05 19:00:00 -0.5 41 Nordeste 61 Nordeste 0 -- -- 90
2018-02-05 18:00:00 -0.3 49 Nordeste 65 Nordeste 0 -- -- 90
2018-02-05 17:00:00 0.5 51 Nordeste 66 Nordeste 0 -- -- 87
2018-02-05 16:00:00 0.9 50 Nordeste 59 Nordeste 0 -- -- 87
2018-02-05 15:00:00 0.9 45 Nordeste 62 Nordeste 0 -- -- 90
2018-02-05 14:00:00 1 46 Nordeste 65 Nordeste 0 -- -- 89
2018-02-05 13:00:00 0.6 46 Nordeste 62 Nordeste 0 -- -- 86
2018-02-05 12:00:00 0.2 46 Nordeste 59 Nordeste 0.2 -- -- 91
2018-02-05 11:00:00 -0.1 40 Nordeste 50 Nordeste 0 -- -- 95
2018-02-05 10:00:00 -0.6 35 Nordeste 41 Nordeste 0 -- -- 97
2018-02-05 09:00:00 -0.7 24 Nordeste 37 Nordeste 0 -- -- 96
2018-02-05 08:00:00 -1.1 20 Nordeste 29 Nordeste 0 -- -- 98
2018-02-05 07:00:00 -1.2 23 Nordeste 28 Nordeste 0 -- -- 96
2018-02-05 06:00:00 -1.3 16 Nordeste 25 Nordeste 0 -- -- 95
2018-02-05 05:00:00 -1.4 21 Nordeste 26 Nordeste 0 -- -- 96
2018-02-05 04:00:00 -1.4 15 Nordeste 21 Nordeste 0 -- -- 95
2018-02-05 03:00:00 -1.2 18 Nordeste 32 Nordeste 0 -- -- 94
2018-02-05 02:00:00 -1.1 22 Nordeste 30 Nordeste 0 -- -- 94
2018-02-05 01:00:00 -0.8 16 Nordeste 24 Nordeste 0 -- -- 92
2018-02-05 00:00:00 -0.7 16 Nordeste 22 Nordeste 0 -- -- 93
2018-02-04 23:00:00 -0.5 7 Nordeste 16 Nordeste 0 -- -- 97
2018-02-04 22:00:00 -0.3 14 Nordeste 21 Nordeste 0 -- -- 96
2018-02-04 21:00:00 -0.1 12 Nordeste 37 Nordeste 0 -- -- 96
2018-02-04 20:00:00 0 24 Nordeste 41 Nordeste 0 -- -- 96
2018-02-04 19:00:00 0.2 32 Nordeste 41 Nordeste 0 -- -- 90
2018-02-04 18:00:00 0.2 28 Nordeste 48 Nordeste 0 -- -- 90
2018-02-04 17:00:00 0.3 35 Nordeste 50 Nordeste 0.4 -- -- 94
2018-02-04 16:00:00 0.6 30 Nordeste 42 Nordeste 0.6 -- -- 90
2018-02-04 15:00:00 0.4 30 Nordeste 46 Nordeste 0.4 -- -- 91
2018-02-04 14:00:00 0.4 29 Nordeste 42 Nordeste 0.4 -- -- 90
2018-02-04 13:00:00 0.2 24 Nordeste 35 Nordeste 0.4 -- -- 88
2018-02-04 12:00:00 0.2 25 Nordeste 38 Nordeste 0.2 -- -- 89
2018-02-04 11:00:00 0 15 Nordeste 28 Nordeste 0.2 -- -- 90
2018-02-04 10:00:00 -0.3 0 Calma -- -- 0.2 -- -- 94
2018-02-04 09:00:00 -0.8 0 Calma -- -- 0 -- -- 98
2018-02-04 08:00:00 -0.7 0 Calma -- -- 0 -- -- 98
2018-02-04 07:00:00 -0.5 0 Calma -- -- 0 -- -- 98
2018-02-04 06:00:00 -0.4 0 Calma -- -- 0 -- -- 99
2018-02-04 05:00:00 -0.3 0 Calma -- -- 0 -- -- 98
2018-02-04 04:00:00 -0.2 0 Calma -- -- 0 -- -- 98
2018-02-04 03:00:00 -0.2 0 Calma 4 Sur 0 -- -- 98
2018-02-04 02:00:00 -0.1 0 Calma 0 Calma 0 -- -- 98
2018-02-04 01:00:00 -0.1 2 Sur 9 Norte 0.2 -- -- 97
2018-02-04 00:00:00 0.2 7 Norte 17 Noroeste 0.8 -- -- 97
2018-02-03 23:00:00 0.4 9 Noroeste 16 Noroeste 1.4 -- -- 96
2018-02-03 22:00:00 0.3 9 Norte 13 Norte 0.8 -- -- 96
2018-02-03 21:00:00 1.4 11 Noroeste 19 Oeste 0.8 -- -- 92
2018-02-03 20:00:00 2.7 14 Oeste 32 Noroeste 0 -- -- 82
2018-02-03 19:00:00 3.3 22 Noroeste 36 Noroeste 0 -- -- 74
2018-02-03 18:00:00 3.5 20 Noroeste 46 Noroeste 0 -- -- 66
2018-02-03 17:00:00 3.6 37 Noroeste 58 Noroeste 0 -- -- 66
2018-02-03 16:00:00 5.1 26 Noroeste 51 Noroeste 0 -- -- 61
2018-02-03 15:00:00 4.9 34 Noroeste 52 Noroeste 0 -- -- 60
2018-02-03 14:00:00 3.5 32 Noroeste 50 Oeste 0 -- -- 63
2018-02-03 13:00:00 -- -- -- -- -- -- -- -- --
2018-02-03 12:00:00 -- -- -- -- -- -- -- -- --
2018-02-03 11:00:00 -- -- -- -- -- -- -- -- --
2018-02-03 10:00:00 -- -- -- -- -- -- -- -- --
2018-02-03 09:00:00 -1.7 19 Noroeste 31 Noroeste 0 -- -- 82
2018-02-03 08:00:00 -2.5 24 Noroeste 40 Noroeste 0 -- -- 88
2018-02-03 07:00:00 -2 28 Noroeste 39 Noroeste 0 -- -- 87
2018-02-03 06:00:00 -1.7 -- -- -- -- -- -- -- --
2018-02-03 05:00:00 -1.6 15 Noroeste 40 Noroeste 0 -- -- 85
2018-02-03 04:00:00 -1.4 29 Noroeste 42 Noroeste 0 -- -- 83
2018-02-03 03:00:00 -0.4 31 Noroeste 47 Noroeste 0 -- -- 72
2018-02-03 02:00:00 -0.4 23 Noroeste 42 Noroeste 0 -- -- 73
2018-02-03 01:00:00 -0.5 30 Norte 41 Noroeste 0 -- -- 71
2018-02-03 00:00:00 -0.8 22 Norte 37 Norte 0 -- -- 73
2018-02-02 23:00:00 -1.6 23 Norte 30 Norte 0 -- -- 76
2018-02-02 22:00:00 -1.6 23 Norte 38 Norte 0 -- -- 76
2018-02-02 21:00:00 -1.4 26 Norte 32 Norte 0 -- -- 74
2018-02-02 20:00:00 -1 25 Norte 44 Norte 0 -- -- 70
2018-02-02 19:00:00 0.2 39 Norte 61 Norte 0 -- -- 64
2018-02-02 18:00:00 1.3 37 Norte 58 Norte 0 -- -- 62
2018-02-02 17:00:00 1.5 41 Norte 59 Norte 0 -- -- 56
2018-02-02 16:00:00 2.4 44 Norte 62 Norte 0 -- -- 49
2018-02-02 15:00:00 2.6 43 Norte 66 Norte 0 -- -- 50
2018-02-02 14:00:00 2.4 45 Norte 62 Norte 0 -- -- 53
2018-02-02 13:00:00 2.5 39 Norte 59 Norte 0 -- -- 47
2018-02-02 12:00:00 1.7 44 Norte 60 Norte 0 -- -- 49
2018-02-02 11:00:00 0.7 40 Norte 59 Norte 0 -- -- 61
2018-02-02 10:00:00 -0.7 33 Norte 46 Norte 0 -- -- 68
2018-02-02 09:00:00 -1.8 32 Norte 49 Norte 0 -- -- 75
2018-02-02 08:00:00 -2.1 29 Norte 45 Norte 0 -- -- 78
2018-02-02 07:00:00 -1.2 28 Norte 42 Norte 0 -- -- 79
2018-02-02 06:00:00 -1.5 9 Noroeste 31 Norte 0 -- -- 83
2018-02-02 05:00:00 -1 26 Norte 36 Norte 0 -- -- 80
2018-02-02 04:00:00 -0.9 28 Norte 33 Norte 0 -- -- 77
2018-02-02 03:00:00 -0.6 15 Norte 24 Norte 0 -- -- 76
2018-02-02 02:00:00 -1.8 12 Norte 23 Norte 0 -- -- 80
2018-02-02 01:00:00 -2.2 17 Norte 26 Norte 0 -- -- 81
2018-02-02 00:00:00 -2.3 14 Norte 26 Norte 0 -- -- 82
2018-02-01 23:00:00 -2.1 17 Norte 26 Norte 0 -- -- 79
2018-02-01 22:00:00 -0.9 18 Norte 29 Norte 0 -- -- 75
2018-02-01 21:00:00 -0.7 21 Norte 31 Norte 0 -- -- 72
2018-02-01 20:00:00 0.2 19 Norte 34 Norte 0 -- -- 73
2018-02-01 19:00:00 1.5 27 Norte 35 Norte 0 -- -- 68
2018-02-01 18:00:00 1.8 18 Norte 35 Norte 0 -- -- 76
2018-02-01 17:00:00 3.2 28 Norte 50 Norte 0 -- -- 61
2018-02-01 16:00:00 4.1 29 Norte 46 Norte 0 -- -- 61
2018-02-01 15:00:00 5.3 30 Norte 46 Norte 0 -- -- 57
2018-02-01 14:00:00 4.7 34 Norte 50 Norte 0 -- -- 64
2018-02-01 13:00:00 3.6 10 Noroeste 21 Noroeste 0 -- -- 76
2018-02-01 12:00:00 3.3 6 Norte 12 Noroeste 0 -- -- 75
2018-02-01 11:00:00 2.8 3 Nordeste 17 Noroeste 0 -- -- 75
2018-02-01 10:00:00 1.8 9 Norte 17 Noroeste 0 -- -- 77
2018-02-01 09:00:00 1.2 4 Norte 10 Norte 0 -- -- 77
2018-02-01 08:00:00 0.2 0 Calma 6 Este 0 -- -- 79
2018-02-01 07:00:00 -0.5 0 Calma 4 Sur 0 -- -- 82
2018-02-01 06:00:00 -0.3 0 Calma 3 Nordeste 0 -- -- 82
2018-02-01 05:00:00 -0.7 0 Calma 9 Norte 0 -- -- 82
2018-02-01 04:00:00 -1 4 Norte 9 Nordeste 0 -- -- 81
2018-02-01 03:00:00 -0.7 8 Nordeste 11 Nordeste 0 -- -- 79
2018-02-01 02:00:00 0.2 7 Norte 13 Norte 0 -- -- 74
2018-02-01 01:00:00 -0.3 0 Calma 7 Este 0 -- -- 74
2018-02-01 00:00:00 1.9 4 Sudeste 8 Sudeste 0 -- -- 67
2018-01-31 23:00:00 2.1 0 Calma 4 Norte 0 -- -- 66
2018-01-31 22:00:00 2.5 0 Calma 4 Norte 0 -- -- 63
2018-01-31 21:00:00 5.4 3 Nordeste 9 Norte 0 -- -- 53
2018-01-31 20:00:00 5.4 4 Norte 12 Noroeste 0 -- -- 53
2018-01-31 19:00:00 7.3 4 Noroeste 10 Oeste 0 -- -- 44
2018-01-31 18:00:00 11.2 7 Oeste 17 Oeste 0 -- -- 38
2018-01-31 17:00:00 12.7 10 Oeste 19 Oeste 0 -- -- 32
2018-01-31 16:00:00 12 12 Noroeste 20 Noroeste 0 -- -- 35
2018-01-31 15:00:00 11.3 12 Noroeste 23 Noroeste 0 -- -- 31
2018-01-31 14:00:00 10.4 9 Noroeste 16 Oeste 0 -- -- 45
2018-01-31 13:00:00 10.1 5 Sudoeste 10 Sudoeste 0 -- -- 55
2018-01-31 12:00:00 7.6 3 Sur 10 Norte 0 -- -- 64
2018-01-31 11:00:00 4.9 2 Norte 10 Nordeste 0 -- -- 71
2018-01-31 10:00:00 0.6 9 Norte 11 Nordeste 0 -- -- 81
2018-01-31 09:00:00 -2.2 4 Norte 14 Nordeste 0 -- -- 86
2018-01-31 08:00:00 -3.4 10 Norte 13 Norte 0 -- -- 89
2018-01-31 07:00:00 -3 7 Nordeste 12 Norte 0 -- -- 89
2018-01-31 06:00:00 -2.3 6 Norte 15 Nordeste 0 -- -- 85
2018-01-31 05:00:00 -2.8 4 Nordeste 13 Norte 0 -- -- 87
2018-01-31 04:00:00 -1.9 10 Nordeste 18 Nordeste 0 -- -- 87
2018-01-31 03:00:00 -2.3 5 Nordeste 12 Nordeste 0 -- -- 89
2018-01-31 02:00:00 -0.3 8 Nordeste 14 Nordeste 0 -- -- 83
2018-01-31 01:00:00 -0.4 5 Norte 8 Norte 0 -- -- 85
2018-01-31 00:00:00 0.6 2 Norte 14 Nordeste 0 -- -- 83
2018-01-30 23:00:00 0.5 7 Norte 12 Norte 0 -- -- 77
2018-01-30 22:00:00 2.7 0 Calma 6 Este 0 -- -- 66
2018-01-30 21:00:00 3.4 3 Sudeste 11 Sudeste 0 -- -- 63
2018-01-30 20:00:00 4.8 8 Sudeste 13 Sudeste 0 -- -- 60
2018-01-30 19:00:00 6.5 9 Sudeste 11 Sudeste 0 -- -- 53
2018-01-30 18:00:00 11.5 8 Sur 13 Sur 0 -- -- 41
2018-01-30 17:00:00 13.5 9 Sur 15 Sudoeste 0 -- -- 35
2018-01-30 16:00:00 14.5 7 Sudoeste 15 Sur 0 -- -- 33
2018-01-30 15:00:00 12.7 6 Sur 14 Sudoeste 0 -- -- 42
2018-01-30 14:00:00 11.5 6 Sur 14 Sudoeste 0 -- -- 49
2018-01-30 13:00:00 9.8 7 Sur 11 Sudeste 0 -- -- 53
2018-01-30 12:00:00 8 2 Oeste 6 Norte 0 -- -- 67
2018-01-30 11:00:00 4.4 4 Norte 10 Nordeste 0 -- -- 74
2018-01-30 10:00:00 2.1 4 Norte 15 Nordeste 0 -- -- 77
2018-01-30 09:00:00 -2.8 11 Nordeste 13 Nordeste 0 -- -- 90
2018-01-30 08:00:00 -3.3 0 Calma 6 Nordeste 0 -- -- 92
2018-01-30 07:00:00 -2.5 6 Nordeste 9 Norte 0 -- -- 91
2018-01-30 06:00:00 -2.3 8 Norte 14 Nordeste 0 -- -- 90
2018-01-30 05:00:00 -2.4 4 Norte 13 Nordeste 0 -- -- 89
2018-01-30 04:00:00 -1.2 11 Nordeste 14 Nordeste 0 -- -- 86
2018-01-30 03:00:00 -0.9 8 Nordeste 13 Norte 0 -- -- 86
2018-01-30 02:00:00 0.3 8 Norte 12 Norte 0 -- -- 81
2018-01-30 01:00:00 -0.5 4 Norte 12 Nordeste 0 -- -- 81
2018-01-30 00:00:00 1.1 9 Norte 12 Norte 0 -- -- 79
2018-01-29 23:00:00 1.2 0 Calma 3 Norte 0 -- -- 81
2018-01-29 22:00:00 2 0 Calma 6 Norte 0 -- -- 79
2018-01-29 21:00:00 3.6 4 Nordeste 11 Nordeste 0 -- -- 75
2018-01-29 20:00:00 4.3 6 Nordeste 9 Nordeste 0 -- -- 76
2018-01-29 19:00:00 6.7 0 Calma 9 Sudoeste 0 -- -- 69
2018-01-29 18:00:00 10.5 9 Sudoeste 13 Sudoeste 0 -- -- 58
2018-01-29 17:00:00 13.3 9 Sudoeste 14 Sudoeste 0 -- -- 50
2018-01-29 16:00:00 13.7 8 Sur 16 Sudoeste 0 -- -- 47
2018-01-29 15:00:00 12.9 7 Sur 14 Sur 0 -- -- 50
2018-01-29 14:00:00 10.8 6 Sur 13 Sur 0 -- -- 55
2018-01-29 13:00:00 9.1 8 Sur 13 Sur 0 -- -- 65
2018-01-29 12:00:00 7.1 5 Sur 8 Sur 0 -- -- 71
2018-01-29 11:00:00 4.8 2 Norte 8 Norte 0 -- -- 76
2018-01-29 10:00:00 3.4 2 Nordeste 9 Norte 0 -- -- 76
2018-01-29 09:00:00 -1.6 6 Nordeste 13 Norte 0 -- -- 91
2018-01-29 08:00:00 -2.5 11 Norte 18 Norte 0 -- -- 94
2018-01-29 07:00:00 -2.7 7 Norte 15 Norte 0 -- -- 95
2018-01-29 06:00:00 -1.4 12 Norte 15 Norte 0 -- -- 97
2018-01-29 05:00:00 -3.3 9 Norte 10 Nordeste 0 -- -- 95
2018-01-29 04:00:00 -1.4 7 Nordeste 10 Nordeste 0 -- -- 93
2018-01-29 03:00:00 -1.7 5 Nordeste 10 Nordeste 0 -- -- 93
2018-01-29 02:00:00 -0.7 7 Norte 12 Nordeste 0 -- -- 92
2018-01-29 01:00:00 0.1 8 Norte 10 Norte 0 -- -- 90
2018-01-29 00:00:00 0.1 6 Nordeste 14 Norte 0 -- -- 94
2018-01-28 23:00:00 0.5 9 Este 14 Nordeste 0 -- -- 87
2018-01-28 22:00:00 2.3 7 Este 10 Este 0 -- -- 84
2018-01-28 21:00:00 4 3 Nordeste 10 Oeste 0 -- -- 82
2018-01-28 20:00:00 3.6 2 Este 17 Este 0 -- -- 82
2018-01-28 19:00:00 4.9 13 Este 18 Este 0 -- -- 77
2018-01-28 18:00:00 7.2 11 Este 21 Este 0 -- -- 70
2018-01-28 17:00:00 8.5 15 Este 24 Sudeste 0 -- -- 66
2018-01-28 16:00:00 9 17 Sur 26 Sudeste 0 -- -- 64
2018-01-28 15:00:00 8.1 23 Sudeste 50 Sudeste 0 -- -- 66
2018-01-28 14:00:00 8.7 25 Sudeste 43 Sudeste 0 -- -- 63
2018-01-28 13:00:00 9 33 Sudeste 45 Este 0 -- -- 61
2018-01-28 12:00:00 8.8 27 Este 44 Este 0 -- -- 60
2018-01-28 11:00:00 8 21 Sudeste 37 Este 0 -- -- 60
2018-01-28 10:00:00 4.3 17 Nordeste 26 Nordeste 0 -- -- 72
2018-01-28 09:00:00 0.1 13 Norte 17 Norte 0 -- -- 84
2018-01-28 08:00:00 -0.4 9 Norte 18 Nordeste 0 -- -- 84
2018-01-28 07:00:00 -0.8 8 Norte 17 Norte 0 -- -- 85
2018-01-28 06:00:00 -1.3 3 Oeste 22 Nordeste 0 -- -- 86
2018-01-28 05:00:00 -1.1 14 Nordeste 18 Nordeste 0 -- -- 85
2018-01-28 04:00:00 -0.8 13 Norte 23 Nordeste 0 -- -- 82
2018-01-28 03:00:00 -0.3 18 Nordeste 27 Nordeste 0 -- -- 81
2018-01-28 02:00:00 -0.1 24 Nordeste 32 Nordeste 0 -- -- 80
2018-01-28 01:00:00 -0.2 21 Nordeste 31 Nordeste 0 -- -- 81
2018-01-28 00:00:00 0 27 Nordeste 34 Norte 0 -- -- 82
2018-01-27 23:00:00 0.5 25 Norte 37 Nordeste 0 -- -- 80
2018-01-27 22:00:00 0.7 30 Nordeste 44 Nordeste 0 -- -- 79
2018-01-27 21:00:00 0.9 37 Nordeste 58 Nordeste 0 -- -- 81
2018-01-27 20:00:00 1.5 41 Nordeste 58 Nordeste 0 -- -- 77
2018-01-27 19:00:00 1.9 48 Nordeste 68 Nordeste 0 -- -- 73
2018-01-27 18:00:00 2.9 49 Nordeste 69 Nordeste 0 -- -- 69
2018-01-27 17:00:00 4.3 39 Nordeste 60 Nordeste 0 -- -- 63
2018-01-27 16:00:00 4.7 42 Nordeste 68 Nordeste 0 -- -- 60
2018-01-27 15:00:00 4.6 48 Nordeste 77 Nordeste 0 -- -- 64
2018-01-27 14:00:00 4 52 Nordeste 80 Nordeste 0 -- -- 66
2018-01-27 13:00:00 4.3 55 Nordeste 73 Norte 0 -- -- 68
2018-01-27 12:00:00 3.5 56 Nordeste 71 Nordeste 0 -- -- 73
2018-01-27 11:00:00 3 42 Nordeste 59 Nordeste 0 -- -- 79
2018-01-27 10:00:00 2.8 42 Norte 57 Norte 0 -- -- 73
2018-01-27 09:00:00 1.1 35 Norte 67 Nordeste 0 -- -- 84
2018-01-27 08:00:00 1.4 50 Norte 76 Norte 0 -- -- 81
2018-01-27 07:00:00 0.8 39 Norte 54 Norte 0 -- -- 86
2018-01-27 06:00:00 0.6 37 Norte 56 Norte 0 -- -- 86
2018-01-27 05:00:00 0.9 35 Norte 48 Norte 0 -- -- 81
2018-01-27 04:00:00 1.3 32 Norte 42 Norte 0 -- -- 80
2018-01-27 03:00:00 1.2 26 Norte 40 Norte 0 -- -- 80
2018-01-27 02:00:00 0.5 23 Norte 53 Norte 0 -- -- 84
2018-01-27 01:00:00 0.8 26 Norte 43 Norte 0 -- -- 83
2018-01-27 00:00:00 1.1 24 Norte 45 Norte 0 -- -- 77
2018-01-26 23:00:00 0.9 26 Norte 48 Norte 0 -- -- 77
2018-01-26 22:00:00 0.7 24 Norte 48 Norte 0 -- -- 83
2018-01-26 21:00:00 0.6 19 Norte 45 Norte 0 -- -- 81
2018-01-26 20:00:00 0.8 22 Norte 43 Norte 0 -- -- 80
2018-01-26 19:00:00 0.7 25 Norte 46 Norte 0 -- -- 84
2018-01-26 18:00:00 2 36 Norte 63 Norte 0 -- -- 77
2018-01-26 17:00:00 4.1 35 Norte 52 Norte 0 -- -- 68
2018-01-26 16:00:00 3 35 Norte 57 Norte 0 -- -- 79
2018-01-26 15:00:00 4.7 39 Norte 69 Norte 0 -- -- 64
2018-01-26 14:00:00 4.8 49 Norte 66 Norte 0 -- -- 66
2018-01-26 13:00:00 4.4 50 Norte 69 Norte 0 -- -- 67
2018-01-26 12:00:00 3.8 43 Norte 63 Norte 0 -- -- 71
2018-01-26 11:00:00 3.4 40 Norte 53 Norte 0 -- -- 72
2018-01-26 10:00:00 1.7 36 Norte 52 Norte 0 -- -- 80
2018-01-26 09:00:00 1.3 32 Norte 45 Norte 0 -- -- 80
2018-01-26 08:00:00 0.9 33 Norte 50 Norte 0 -- -- 79
2018-01-26 07:00:00 1.1 36 Norte 46 Norte 0 -- -- 83
2018-01-26 06:00:00 1.4 36 Norte 57 Norte 0 -- -- 80
2018-01-26 05:00:00 1.4 31 Norte 50 Norte 0 -- -- 84
2018-01-26 04:00:00 1.3 25 Norte 44 Norte 0 -- -- 85
2018-01-26 03:00:00 1.4 34 Norte 51 Norte 0 -- -- 84
2018-01-26 02:00:00 1.4 35 Norte 46 Norte 0 -- -- 85
2018-01-26 01:00:00 1.2 29 Nordeste 44 Nordeste 0 -- -- 89
2018-01-26 00:00:00 0.8 31 Nordeste 41 Nordeste 0 -- -- 95
2018-01-25 23:00:00 0.7 21 Nordeste 33 Nordeste 0.8 -- -- 96
2018-01-25 22:00:00 1.8 25 Nordeste 37 Nordeste 0.8 -- -- 94
2018-01-25 21:00:00 3.4 9 Noroeste 21 Noroeste 0.8 -- -- 95
2018-01-25 20:00:00 3.4 8 Sudoeste 19 Oeste 0.2 -- -- 93
2018-01-25 19:00:00 3.7 13 Oeste 20 Sudoeste 0 -- -- 90
2018-01-25 18:00:00 3.7 13 Sudoeste 22 Oeste 0 -- -- 91
2018-01-25 17:00:00 4.2 13 Oeste 19 Sudoeste 0 -- -- 87
2018-01-25 16:00:00 4.1 17 Sudoeste 36 Oeste 0.2 -- -- 87
2018-01-25 15:00:00 5.3 30 Oeste 53 Oeste 0.2 -- -- 77
2018-01-25 14:00:00 8.3 36 Oeste 49 Sudoeste 0 -- -- 63
2018-01-25 13:00:00 7.4 26 Oeste 45 Oeste 0 -- -- 78
2018-01-25 12:00:00 7.4 23 Oeste 43 Oeste 0 -- -- 73
2018-01-25 11:00:00 5.8 4 Noroeste 13 Este 0 -- -- 83
2018-01-25 10:00:00 2.3 5 Sur 14 Sur 0 -- -- 92
2018-01-25 09:00:00 1.6 6 Sur 8 Sur 0 -- -- 90
2018-01-25 08:00:00 1.3 2 Sur 9 Sur 0 -- -- 87
2018-01-25 07:00:00 2.2 5 Sur 7 Sur 0 -- -- 82
2018-01-25 06:00:00 2 3 Sudeste 5 Sudeste 0 -- -- 85
2018-01-25 05:00:00 3.2 0 Calma 8 Sudeste 0 -- -- 81
2018-01-25 04:00:00 2.6 0 Calma 5 Nordeste 0 -- -- 82
2018-01-25 03:00:00 4.1 0 Calma 3 Nordeste 0 -- -- 77
2018-01-25 02:00:00 4.7 0 Calma 6 Oeste 0 -- -- 74
2018-01-25 01:00:00 4.5 0 Calma 3 Noroeste 0 -- -- 75
2018-01-25 00:00:00 4 0 Calma 2 Noroeste 0 -- -- 78
2018-01-24 23:00:00 4.9 0 Calma 6 Oeste 0 -- -- 75
2018-01-24 22:00:00 5.4 3 Noroeste 7 Sur 0 -- -- 74
2018-01-24 21:00:00 6.7 5 Sur 6 Sur 0 -- -- 69
2018-01-24 20:00:00 8.9 4 Noroeste 12 Noroeste 0 -- -- 59
2018-01-24 19:00:00 9.1 8 Oeste 13 Oeste 0 -- -- 65
2018-01-24 18:00:00 12.6 8 Oeste 17 Oeste 0 -- -- 57
2018-01-24 17:00:00 14.8 11 Oeste 25 Sudoeste 0 -- -- 49
2018-01-24 16:00:00 15.1 13 Oeste 26 Oeste 0 -- -- 45
2018-01-24 15:00:00 14.7 14 Oeste 21 Oeste 0 -- -- 44
2018-01-24 14:00:00 13.6 13 Oeste 22 Oeste 0 -- -- 59
2018-01-24 13:00:00 11.4 2 Este 9 Sur 0 -- -- 69
2018-01-24 12:00:00 9.6 3 Sur 6 Sur 0 -- -- 73
2018-01-24 11:00:00 5.8 3 Norte 8 Nordeste 0 -- -- 96
2018-01-24 10:00:00 0.7 4 Norte 5 Norte 0 -- -- 97
2018-01-24 09:00:00 -2 0 Calma -- -- 0 -- -- 99
2018-01-24 08:00:00 -2.4 0 Calma -- -- 0 -- -- 99
2018-01-24 07:00:00 -2.4 0 Calma -- -- 0 -- -- 99
2018-01-24 06:00:00 -2.1 0 Calma -- -- 0 -- -- 99
2018-01-24 05:00:00 -1.3 0 Calma -- -- 0 -- -- 99
2018-01-24 04:00:00 -0.8 0 Calma 13 Norte 0 -- -- 100
2018-01-24 03:00:00 -0.4 10 Norte 13 Norte 0 -- -- 99
2018-01-24 02:00:00 0 6 Norte 14 Norte 0 -- -- 100
2018-01-24 01:00:00 0.4 13 Norte 15 Norte 0 -- -- 99
2018-01-24 00:00:00 0.9 13 Nordeste 15 Nordeste 0 -- -- 99
2018-01-23 23:00:00 2.8 6 Norte 9 Norte 0 -- -- 98
2018-01-23 22:00:00 4.1 7 Nordeste 11 Norte 0 -- -- 98
2018-01-23 21:00:00 4.9 6 Norte 11 Norte 0 -- -- 94
2018-01-23 20:00:00 6.2 10 Nordeste 12 Norte 0 -- -- 88
2018-01-23 19:00:00 7.4 5 Nordeste 9 Noroeste 0 -- -- 81
2018-01-23 18:00:00 11.4 4 Noroeste 13 Sudoeste 0 -- -- 71
2018-01-23 17:00:00 16.2 4 Sudoeste 8 Sudoeste 0 -- -- 55
2018-01-23 16:00:00 15 4 Oeste 12 Sur 0 -- -- 58
2018-01-23 15:00:00 12.6 9 Sur 17 Sudoeste 0 -- -- 67
2018-01-23 14:00:00 10.6 3 Sudoeste 11 Norte 0 -- -- 75
2018-01-23 13:00:00 6.1 8 Norte 12 Norte 0 -- -- 97
2018-01-23 12:00:00 3.8 3 Norte 10 Norte 0 -- -- 97
2018-01-23 11:00:00 2.1 4 Noroeste 16 Norte 0 -- -- 99
2018-01-23 10:00:00 0.1 9 Norte 17 Norte 0 -- -- 100
2018-01-23 09:00:00 -0.4 10 Norte 20 Norte 0 -- -- 100
2018-01-23 08:00:00 -0.2 10 Norte 16 Noroeste 0 -- -- 99
2018-01-23 07:00:00 0 8 Norte 12 Norte 0 -- -- 99
2018-01-23 06:00:00 1.5 4 Norte 10 Norte 0 -- -- 99
2018-01-23 05:00:00 1.8 6 Norte 14 Nordeste 0 -- -- 99
2018-01-23 04:00:00 1.4 4 Este 10 Norte 0 -- -- 99
2018-01-23 03:00:00 1.9 0 Calma 19 Noroeste 0 -- -- 98
2018-01-23 02:00:00 2.5 15 Norte 21 Norte 0 -- -- 96
2018-01-23 01:00:00 2.6 3 Norte 15 Norte 0 -- -- 96
2018-01-23 00:00:00 3 12 Norte 15 Norte 0 -- -- 96
2018-01-22 23:00:00 2.6 8 Norte 11 Norte 0 -- -- 96
2018-01-22 22:00:00 3 4 Nordeste 11 Norte 0 -- -- 94
2018-01-22 21:00:00 4 8 Norte 13 Noroeste 0 -- -- 93
2018-01-22 20:00:00 4.9 5 Nordeste 21 Noroeste 0 -- -- 89
2018-01-22 19:00:00 5.8 12 Noroeste 28 Noroeste 0 -- -- 85
2018-01-22 18:00:00 7.8 15 Noroeste 25 Oeste 0 -- -- 79
2018-01-22 17:00:00 9.4 14 Noroeste 30 Noroeste 0 -- -- 73
2018-01-22 16:00:00 10.2 21 Noroeste 28 Noroeste 0 -- -- 70
2018-01-22 15:00:00 10 17 Noroeste 27 Noroeste 0 -- -- 70
2018-01-22 14:00:00 9.4 15 Noroeste 28 Noroeste 0 -- -- 73
2018-01-22 13:00:00 7.9 15 Noroeste 24 Noroeste 0 -- -- 78
2018-01-22 12:00:00 6.7 17 Noroeste 26 Noroeste 0 -- -- 84
2018-01-22 11:00:00 5.8 14 Noroeste 27 Noroeste 0 -- -- 87
2018-01-22 10:00:00 4.9 21 Noroeste 29 Noroeste 0 -- -- 89
2018-01-22 09:00:00 4.6 18 Noroeste 27 Norte 0 -- -- 92
2018-01-22 08:00:00 5 17 Noroeste 29 Noroeste 0 -- -- 90
2018-01-22 07:00:00 5.3 10 Noroeste 20 Noroeste 0 -- -- 91
2018-01-22 06:00:00 5.6 10 Noroeste 22 Noroeste 0 -- -- 91
2018-01-22 05:00:00 5.9 12 Noroeste 26 Noroeste 0 -- -- 90
2018-01-22 04:00:00 5.9 17 Noroeste 25 Noroeste 0 -- -- 90
2018-01-22 03:00:00 6.1 16 Noroeste 26 Norte 0 -- -- 91
2018-01-22 02:00:00 5.5 7 Norte 20 Noroeste 0 -- -- 94
2018-01-22 01:00:00 5.6 10 Noroeste 18 Noroeste 0 -- -- 93
2018-01-22 00:00:00 5.6 12 Noroeste 20 Noroeste 0 -- -- 94